sensor_id;sensor_type;location;lat;lon;timestamp;temperature;humidity
31733;DHT22;18312;51.486;7.144;2024-02-14T00:00:15;8.60;99.90
31733;DHT22;18312;51.486;7.144;2024-02-14T00:02:43;8.60;99.90
31733;DHT22;18312;51.486;7.144;2024-02-14T00:05:11;8.70;99.90
31733;DHT22;18312;51.486;7.144;2024-02-14T00:07:38;8.70;99.90
31733;DHT22;18312;51.486;7.144;2024-02-14T00:10:06;8.70;99.90
31733;DHT22;18312;51.486;7.144;2024-02-14T00:12:33;8.70;99.90
31733;DHT22;18312;51.486;7.144;2024-02-14T00:15:01;8.70;99.90
31733;DHT22;18312;51.486;7.144;2024-02-14T00:17:28;8.70;99.90
31733;DHT22;18312;51.486;7.144;2024-02-14T00:19:55;8.70;99.90
31733;DHT22;18312;51.486;7.144;2024-02-14T00:22:23;8.70;99.90
31733;DHT22;18312;51.486;7.144;2024-02-14T00:24:50;8.70;99.90
31733;DHT22;18312;51.486;7.144;2024-02-14T00:27:17;8.60;99.90
31733;DHT22;18312;51.486;7.144;2024-02-14T00:29:43;8.60;99.90
31733;DHT22;18312;51.486;7.144;2024-02-14T00:32:12;8.50;99.90
31733;DHT22;18312;51.486;7.144;2024-02-14T00:34:39;8.40;99.90
31733;DHT22;18312;51.486;7.144;2024-02-14T00:37:05;8.20;99.90
31733;DHT22;18312;51.486;7.144;2024-02-14T00:39:34;8.10;99.90
31733;DHT22;18312;51.486;7.144;2024-02-14T00:42:00;8.00;99.90
31733;DHT22;18312;51.486;7.144;2024-02-14T00:44:27;8.00;99.90
31733;DHT22;18312;51.486;7.144;2024-02-14T00:46:56;7.90;99.90
31733;DHT22;18312;51.486;7.144;2024-02-14T00:49:24;8.00;99.90
31733;DHT22;18312;51.486;7.144;2024-02-14T00:51:51;8.00;99.90
31733;DHT22;18312;51.486;7.144;2024-02-14T00:54:18;8.00;99.90
31733;DHT22;18312;51.486;7.144;2024-02-14T00:56:46;8.00;99.90
31733;DHT22;18312;51.486;7.144;2024-02-14T00:59:13;8.00;99.90
31733;DHT22;18312;51.486;7.144;2024-02-14T01:01:39;8.00;99.90
31733;DHT22;18312;51.486;7.144;2024-02-14T01:04:06;7.90;99.90
31733;DHT22;18312;51.486;7.144;2024-02-14T01:06:33;7.90;99.90
31733;DHT22;18312;51.486;7.144;2024-02-14T01:09:00;7.90;99.90
31733;DHT22;18312;51.486;7.144;2024-02-14T01:11:27;7.90;99.90
31733;DHT22;18312;51.486;7.144;2024-02-14T01:13:55;7.90;99.90
31733;DHT22;18312;51.486;7.144;2024-02-14T01:16:24;7.90;99.90
31733;DHT22;18312;51.486;7.144;2024-02-14T01:18:50;7.80;99.90
31733;DHT22;18312;51.486;7.144;2024-02-14T01:21:17;7.80;99.90
31733;DHT22;18312;51.486;7.144;2024-02-14T01:23:43;7.80;99.90
31733;DHT22;18312;51.486;7.144;2024-02-14T01:26:10;7.70;99.90
31733;DHT22;18312;51.486;7.144;2024-02-14T01:28:36;7.80;99.90
31733;DHT22;18312;51.486;7.144;2024-02-14T01:31:04;7.80;99.90
31733;DHT22;18312;51.486;7.144;2024-02-14T01:33:31;7.80;99.90
31733;DHT22;18312;51.486;7.144;2024-02-14T01:35:58;7.90;99.90
31733;DHT22;18312;51.486;7.144;2024-02-14T01:38:25;7.80;99.90
31733;DHT22;18312;51.486;7.144;2024-02-14T01:40:51;7.90;99.90
31733;DHT22;18312;51.486;7.144;2024-02-14T01:43:19;7.90;99.90
31733;DHT22;18312;51.486;7.144;2024-02-14T01:45:46;7.90;99.90
31733;DHT22;18312;51.486;7.144;2024-02-14T01:48:15;7.90;99.90
31733;DHT22;18312;51.486;7.144;2024-02-14T01:50:44;7.90;99.90
31733;DHT22;18312;51.486;7.144;2024-02-14T01:53:11;7.90;99.90
31733;DHT22;18312;51.486;7.144;2024-02-14T01:55:39;8.00;99.90
31733;DHT22;18312;51.486;7.144;2024-02-14T01:58:06;8.00;99.90
31733;DHT22;18312;51.486;7.144;2024-02-14T02:00:33;8.10;99.90
31733;DHT22;18312;51.486;7.144;2024-02-14T02:03:01;8.00;99.90
31733;DHT22;18312;51.486;7.144;2024-02-14T02:05:29;8.10;99.90
31733;DHT22;18312;51.486;7.144;2024-02-14T02:07:56;8.10;99.90
31733;DHT22;18312;51.486;7.144;2024-02-14T02:10:23;8.10;99.90
31733;DHT22;18312;51.486;7.144;2024-02-14T02:12:51;8.10;99.90
31733;DHT22;18312;51.486;7.144;2024-02-14T02:15:23;8.20;99.90
31733;DHT22;18312;51.486;7.144;2024-02-14T02:17:50;8.20;99.90
31733;DHT22;18312;51.486;7.144;2024-02-14T02:20:18;8.20;99.90
31733;DHT22;18312;51.486;7.144;2024-02-14T02:22:47;8.20;99.90
31733;DHT22;18312;51.486;7.144;2024-02-14T02:25:15;8.20;99.90
31733;DHT22;18312;51.486;7.144;2024-02-14T02:27:42;8.30;99.90
31733;DHT22;18312;51.486;7.144;2024-02-14T02:30:08;8.40;99.90
31733;DHT22;18312;51.486;7.144;2024-02-14T02:32:36;8.30;99.90
31733;DHT22;18312;51.486;7.144;2024-02-14T02:35:03;8.40;99.90
31733;DHT22;18312;51.486;7.144;2024-02-14T02:37:30;8.40;99.90
31733;DHT22;18312;51.486;7.144;2024-02-14T02:39:59;8.40;99.90
31733;DHT22;18312;51.486;7.144;2024-02-14T02:42:25;8.50;99.90
31733;DHT22;18312;51.486;7.144;2024-02-14T02:44:52;8.50;99.90
31733;DHT22;18312;51.486;7.144;2024-02-14T02:47:19;8.50;99.90
31733;DHT22;18312;51.486;7.144;2024-02-14T02:49:46;8.50;99.90
31733;DHT22;18312;51.486;7.144;2024-02-14T02:52:13;8.60;99.90
31733;DHT22;18312;51.486;7.144;2024-02-14T02:54:40;8.60;99.90
31733;DHT22;18312;51.486;7.144;2024-02-14T02:57:10;8.60;99.90
31733;DHT22;18312;51.486;7.144;2024-02-14T02:59:37;8.70;99.90
31733;DHT22;18312;51.486;7.144;2024-02-14T03:02:08;8.70;99.90
31733;DHT22;18312;51.486;7.144;2024-02-14T03:04:37;8.80;99.90
31733;DHT22;18312;51.486;7.144;2024-02-14T03:07:04;8.80;99.90
31733;DHT22;18312;51.486;7.144;2024-02-14T03:09:33;8.90;99.90
31733;DHT22;18312;51.486;7.144;2024-02-14T03:12:01;8.90;99.90
31733;DHT22;18312;51.486;7.144;2024-02-14T03:14:30;8.90;99.90
31733;DHT22;18312;51.486;7.144;2024-02-14T03:16:58;8.90;99.90
31733;DHT22;18312;51.486;7.144;2024-02-14T03:19:26;9.00;99.90
31733;DHT22;18312;51.486;7.144;2024-02-14T03:21:53;8.90;99.90
31733;DHT22;18312;51.486;7.144;2024-02-14T03:24:20;8.90;99.90
31733;DHT22;18312;51.486;7.144;2024-02-14T03:26:46;8.80;99.90
31733;DHT22;18312;51.486;7.144;2024-02-14T03:29:17;8.80;99.90
31733;DHT22;18312;51.486;7.144;2024-02-14T03:31:46;8.80;99.90
31733;DHT22;18312;51.486;7.144;2024-02-14T03:34:13;8.80;99.90
31733;DHT22;18312;51.486;7.144;2024-02-14T03:36:39;8.90;99.90
31733;DHT22;18312;51.486;7.144;2024-02-14T03:39:06;8.90;99.90
31733;DHT22;18312;51.486;7.144;2024-02-14T03:41:34;8.90;99.90
31733;DHT22;18312;51.486;7.144;2024-02-14T03:44:00;8.90;99.90
31733;DHT22;18312;51.486;7.144;2024-02-14T03:46:28;8.90;99.90
31733;DHT22;18312;51.486;7.144;2024-02-14T03:48:57;8.80;99.90
31733;DHT22;18312;51.486;7.144;2024-02-14T03:51:23;8.70;99.90
31733;DHT22;18312;51.486;7.144;2024-02-14T03:53:50;8.70;99.90
31733;DHT22;18312;51.486;7.144;2024-02-14T03:56:17;8.70;99.90
31733;DHT22;18312;51.486;7.144;2024-02-14T03:58:44;8.60;99.90
31733;DHT22;18312;51.486;7.144;2024-02-14T04:01:12;8.60;99.90
31733;DHT22;18312;51.486;7.144;2024-02-14T04:03:39;8.60;99.90
31733;DHT22;18312;51.486;7.144;2024-02-14T04:06:07;8.60;99.90
31733;DHT22;18312;51.486;7.144;2024-02-14T04:08:34;8.70;99.90
31733;DHT22;18312;51.486;7.144;2024-02-14T04:11:00;8.70;99.90
31733;DHT22;18312;51.486;7.144;2024-02-14T04:13:27;8.70;99.90
31733;DHT22;18312;51.486;7.144;2024-02-14T04:15:54;8.70;99.90
31733;DHT22;18312;51.486;7.144;2024-02-14T04:18:21;8.80;99.90
31733;DHT22;18312;51.486;7.144;2024-02-14T04:20:47;8.80;99.90
31733;DHT22;18312;51.486;7.144;2024-02-14T04:23:15;8.80;99.90
31733;DHT22;18312;51.486;7.144;2024-02-14T04:25:42;8.90;99.90
31733;DHT22;18312;51.486;7.144;2024-02-14T04:28:09;8.90;99.90
31733;DHT22;18312;51.486;7.144;2024-02-14T04:30:37;9.10;99.90
31733;DHT22;18312;51.486;7.144;2024-02-14T04:33:04;9.10;99.90
31733;DHT22;18312;51.486;7.144;2024-02-14T04:35:31;9.10;99.90
31733;DHT22;18312;51.486;7.144;2024-02-14T04:37:59;9.20;99.90
31733;DHT22;18312;51.486;7.144;2024-02-14T04:40:27;9.20;99.90
31733;DHT22;18312;51.486;7.144;2024-02-14T04:42:54;9.10;99.90
31733;DHT22;18312;51.486;7.144;2024-02-14T04:45:21;9.20;99.90
31733;DHT22;18312;51.486;7.144;2024-02-14T04:47:47;9.20;99.90
31733;DHT22;18312;51.486;7.144;2024-02-14T04:50:14;9.20;99.90
31733;DHT22;18312;51.486;7.144;2024-02-14T04:52:41;9.20;99.90
31733;DHT22;18312;51.486;7.144;2024-02-14T04:55:08;9.30;99.90
31733;DHT22;18312;51.486;7.144;2024-02-14T04:57:36;9.30;99.90
31733;DHT22;18312;51.486;7.144;2024-02-14T05:00:04;9.30;99.90
31733;DHT22;18312;51.486;7.144;2024-02-14T05:02:30;9.30;99.90
31733;DHT22;18312;51.486;7.144;2024-02-14T05:04:57;9.30;99.90
31733;DHT22;18312;51.486;7.144;2024-02-14T05:07:24;9.30;99.90
31733;DHT22;18312;51.486;7.144;2024-02-14T05:09:51;9.40;99.90
31733;DHT22;18312;51.486;7.144;2024-02-14T05:12:18;9.40;99.90
31733;DHT22;18312;51.486;7.144;2024-02-14T05:14:46;9.40;99.90
31733;DHT22;18312;51.486;7.144;2024-02-14T05:17:13;9.40;99.90
31733;DHT22;18312;51.486;7.144;2024-02-14T05:19:41;9.50;99.90
31733;DHT22;18312;51.486;7.144;2024-02-14T05:22:08;9.50;99.90
31733;DHT22;18312;51.486;7.144;2024-02-14T05:24:35;9.50;99.90
31733;DHT22;18312;51.486;7.144;2024-02-14T05:27:03;9.50;99.90
31733;DHT22;18312;51.486;7.144;2024-02-14T05:29:30;9.60;99.90
31733;DHT22;18312;51.486;7.144;2024-02-14T05:31:58;9.60;99.90
31733;DHT22;18312;51.486;7.144;2024-02-14T05:34:25;9.60;99.90
31733;DHT22;18312;51.486;7.144;2024-02-14T05:36:51;9.60;99.90
31733;DHT22;18312;51.486;7.144;2024-02-14T05:39:18;9.60;99.90
31733;DHT22;18312;51.486;7.144;2024-02-14T05:41:45;9.60;99.90
31733;DHT22;18312;51.486;7.144;2024-02-14T05:44:12;9.70;99.90
31733;DHT22;18312;51.486;7.144;2024-02-14T05:46:39;9.70;99.90
31733;DHT22;18312;51.486;7.144;2024-02-14T05:49:08;9.70;99.90
31733;DHT22;18312;51.486;7.144;2024-02-14T05:51:34;9.70;99.90
31733;DHT22;18312;51.486;7.144;2024-02-14T05:54:01;9.60;99.90
31733;DHT22;18312;51.486;7.144;2024-02-14T05:56:28;9.60;99.90
31733;DHT22;18312;51.486;7.144;2024-02-14T05:58:55;9.50;99.90
31733;DHT22;18312;51.486;7.144;2024-02-14T06:01:22;9.50;99.90
31733;DHT22;18312;51.486;7.144;2024-02-14T06:03:49;9.50;99.90
31733;DHT22;18312;51.486;7.144;2024-02-14T06:06:17;9.50;99.90
31733;DHT22;18312;51.486;7.144;2024-02-14T06:08:43;9.50;99.90
31733;DHT22;18312;51.486;7.144;2024-02-14T06:11:10;9.50;99.90
31733;DHT22;18312;51.486;7.144;2024-02-14T06:13:38;9.60;99.90
31733;DHT22;18312;51.486;7.144;2024-02-14T06:16:05;9.50;99.90
31733;DHT22;18312;51.486;7.144;2024-02-14T06:18:33;9.60;99.90
31733;DHT22;18312;51.486;7.144;2024-02-14T06:21:01;9.60;99.90
31733;DHT22;18312;51.486;7.144;2024-02-14T06:23:29;9.60;99.90
31733;DHT22;18312;51.486;7.144;2024-02-14T06:25:56;9.60;99.90
31733;DHT22;18312;51.486;7.144;2024-02-14T06:28:23;9.70;99.90
31733;DHT22;18312;51.486;7.144;2024-02-14T06:30:50;9.70;99.90
31733;DHT22;18312;51.486;7.144;2024-02-14T06:33:16;9.70;99.90
31733;DHT22;18312;51.486;7.144;2024-02-14T06:35:44;9.70;99.90
31733;DHT22;18312;51.486;7.144;2024-02-14T06:38:10;9.80;99.90
31733;DHT22;18312;51.486;7.144;2024-02-14T06:40:38;9.80;99.90
31733;DHT22;18312;51.486;7.144;2024-02-14T06:43:06;9.80;99.90
31733;DHT22;18312;51.486;7.144;2024-02-14T06:45:33;9.70;99.90
31733;DHT22;18312;51.486;7.144;2024-02-14T06:47:59;9.70;99.90
31733;DHT22;18312;51.486;7.144;2024-02-14T06:50:26;9.70;99.90
31733;DHT22;18312;51.486;7.144;2024-02-14T06:52:54;9.60;99.90
31733;DHT22;18312;51.486;7.144;2024-02-14T06:55:24;9.60;99.90
31733;DHT22;18312;51.486;7.144;2024-02-14T06:57:52;9.60;99.90
31733;DHT22;18312;51.486;7.144;2024-02-14T07:00:20;9.70;99.90
31733;DHT22;18312;51.486;7.144;2024-02-14T07:02:47;9.70;99.90
31733;DHT22;18312;51.486;7.144;2024-02-14T07:05:13;9.70;99.90
31733;DHT22;18312;51.486;7.144;2024-02-14T07:07:40;9.80;99.90
31733;DHT22;18312;51.486;7.144;2024-02-14T07:10:08;9.80;99.90
31733;DHT22;18312;51.486;7.144;2024-02-14T07:12:35;9.80;99.90
31733;DHT22;18312;51.486;7.144;2024-02-14T07:15:04;9.90;99.90
31733;DHT22;18312;51.486;7.144;2024-02-14T07:17:31;9.90;99.90
31733;DHT22;18312;51.486;7.144;2024-02-14T07:19:58;9.90;99.90
31733;DHT22;18312;51.486;7.144;2024-02-14T07:22:25;9.90;99.90
31733;DHT22;18312;51.486;7.144;2024-02-14T07:24:51;10.00;99.90
31733;DHT22;18312;51.486;7.144;2024-02-14T07:27:19;10.00;99.90
31733;DHT22;18312;51.486;7.144;2024-02-14T07:29:47;10.00;99.90
31733;DHT22;18312;51.486;7.144;2024-02-14T07:32:15;10.00;99.90
31733;DHT22;18312;51.486;7.144;2024-02-14T07:34:42;10.00;99.90
31733;DHT22;18312;51.486;7.144;2024-02-14T07:37:09;10.00;99.90
31733;DHT22;18312;51.486;7.144;2024-02-14T07:39:36;10.00;99.90
31733;DHT22;18312;51.486;7.144;2024-02-14T07:42:03;10.10;99.90
31733;DHT22;18312;51.486;7.144;2024-02-14T07:44:31;10.10;99.90
31733;DHT22;18312;51.486;7.144;2024-02-14T07:46:57;10.20;99.90
31733;DHT22;18312;51.486;7.144;2024-02-14T07:49:26;10.20;99.90
31733;DHT22;18312;51.486;7.144;2024-02-14T07:51:52;10.10;99.90
31733;DHT22;18312;51.486;7.144;2024-02-14T07:54:20;10.10;99.90
31733;DHT22;18312;51.486;7.144;2024-02-14T07:56:47;10.10;99.90
31733;DHT22;18312;51.486;7.144;2024-02-14T07:59:14;10.20;99.90
31733;DHT22;18312;51.486;7.144;2024-02-14T08:01:41;10.10;99.90
31733;DHT22;18312;51.486;7.144;2024-02-14T08:04:09;10.20;99.90
31733;DHT22;18312;51.486;7.144;2024-02-14T08:06:37;10.20;99.90
31733;DHT22;18312;51.486;7.144;2024-02-14T08:09:03;10.20;99.90
31733;DHT22;18312;51.486;7.144;2024-02-14T08:11:35;10.30;99.90
31733;DHT22;18312;51.486;7.144;2024-02-14T08:14:01;10.30;99.90
31733;DHT22;18312;51.486;7.144;2024-02-14T08:16:28;10.40;99.90
31733;DHT22;18312;51.486;7.144;2024-02-14T08:18:55;10.40;99.90
31733;DHT22;18312;51.486;7.144;2024-02-14T08:21:24;10.50;99.90
31733;DHT22;18312;51.486;7.144;2024-02-14T08:23:53;10.50;99.90
31733;DHT22;18312;51.486;7.144;2024-02-14T08:26:20;10.60;99.90
31733;DHT22;18312;51.486;7.144;2024-02-14T08:28:47;10.70;99.90
31733;DHT22;18312;51.486;7.144;2024-02-14T08:31:14;10.80;99.90
31733;DHT22;18312;51.486;7.144;2024-02-14T08:33:41;10.80;99.90
31733;DHT22;18312;51.486;7.144;2024-02-14T08:36:08;10.80;99.90
31733;DHT22;18312;51.486;7.144;2024-02-14T08:38:35;10.90;99.90
31733;DHT22;18312;51.486;7.144;2024-02-14T08:41:03;11.00;99.90
31733;DHT22;18312;51.486;7.144;2024-02-14T08:43:30;11.00;99.90
31733;DHT22;18312;51.486;7.144;2024-02-14T08:45:57;10.90;99.90
31733;DHT22;18312;51.486;7.144;2024-02-14T08:48:24;10.90;99.90
31733;DHT22;18312;51.486;7.144;2024-02-14T08:50:52;11.00;99.90
31733;DHT22;18312;51.486;7.144;2024-02-14T08:53:19;11.00;99.90
31733;DHT22;18312;51.486;7.144;2024-02-14T08:55:46;11.00;99.90
31733;DHT22;18312;51.486;7.144;2024-02-14T08:58:17;11.00;99.90
31733;DHT22;18312;51.486;7.144;2024-02-14T09:00:44;11.00;99.90
31733;DHT22;18312;51.486;7.144;2024-02-14T09:03:10;11.00;99.90
31733;DHT22;18312;51.486;7.144;2024-02-14T09:05:37;11.10;99.90
31733;DHT22;18312;51.486;7.144;2024-02-14T09:08:05;11.10;99.90
31733;DHT22;18312;51.486;7.144;2024-02-14T09:10:31;11.00;99.90
31733;DHT22;18312;51.486;7.144;2024-02-14T09:12:58;11.00;99.90
31733;DHT22;18312;51.486;7.144;2024-02-14T09:15:28;11.00;99.90
31733;DHT22;18312;51.486;7.144;2024-02-14T09:17:56;11.10;99.90
31733;DHT22;18312;51.486;7.144;2024-02-14T09:20:23;11.20;99.90
31733;DHT22;18312;51.486;7.144;2024-02-14T09:22:50;11.20;99.90
31733;DHT22;18312;51.486;7.144;2024-02-14T09:25:16;11.20;99.90
31733;DHT22;18312;51.486;7.144;2024-02-14T09:27:43;11.30;99.90
31733;DHT22;18312;51.486;7.144;2024-02-14T09:30:13;11.30;99.90
31733;DHT22;18312;51.486;7.144;2024-02-14T09:32:41;11.30;99.90
31733;DHT22;18312;51.486;7.144;2024-02-14T09:35:08;11.20;99.90
31733;DHT22;18312;51.486;7.144;2024-02-14T09:37:35;11.20;99.90
31733;DHT22;18312;51.486;7.144;2024-02-14T09:40:04;11.20;99.90
31733;DHT22;18312;51.486;7.144;2024-02-14T09:42:37;11.00;99.90
31733;DHT22;18312;51.486;7.144;2024-02-14T09:45:06;11.00;99.90
31733;DHT22;18312;51.486;7.144;2024-02-14T09:47:33;10.80;99.90
31733;DHT22;18312;51.486;7.144;2024-02-14T09:50:02;10.70;99.90
31733;DHT22;18312;51.486;7.144;2024-02-14T09:52:32;10.60;99.90
31733;DHT22;18312;51.486;7.144;2024-02-14T09:54:59;10.60;99.90
31733;DHT22;18312;51.486;7.144;2024-02-14T09:57:29;10.60;99.90
31733;DHT22;18312;51.486;7.144;2024-02-14T09:59:56;10.60;99.90
31733;DHT22;18312;51.486;7.144;2024-02-14T10:02:23;10.50;99.90
31733;DHT22;18312;51.486;7.144;2024-02-14T10:04:50;10.60;99.90
31733;DHT22;18312;51.486;7.144;2024-02-14T10:07:18;10.70;99.90
31733;DHT22;18312;51.486;7.144;2024-02-14T10:09:45;10.70;99.90
31733;DHT22;18312;51.486;7.144;2024-02-14T10:12:12;10.80;99.90
31733;DHT22;18312;51.486;7.144;2024-02-14T10:14:39;10.90;99.90
31733;DHT22;18312;51.486;7.144;2024-02-14T10:17:06;10.90;99.90
31733;DHT22;18312;51.486;7.144;2024-02-14T10:19:33;11.00;99.90
31733;DHT22;18312;51.486;7.144;2024-02-14T10:22:00;11.00;99.90
31733;DHT22;18312;51.486;7.144;2024-02-14T10:24:30;11.10;99.90
31733;DHT22;18312;51.486;7.144;2024-02-14T10:26:59;11.10;99.90
31733;DHT22;18312;51.486;7.144;2024-02-14T10:29:26;11.10;99.90
31733;DHT22;18312;51.486;7.144;2024-02-14T10:31:53;11.20;99.90
31733;DHT22;18312;51.486;7.144;2024-02-14T10:34:24;11.30;99.90
31733;DHT22;18312;51.486;7.144;2024-02-14T10:36:52;11.40;99.90
31733;DHT22;18312;51.486;7.144;2024-02-14T10:39:20;11.40;99.90
31733;DHT22;18312;51.486;7.144;2024-02-14T10:41:49;11.30;99.90
31733;DHT22;18312;51.486;7.144;2024-02-14T10:44:16;11.40;99.90
31733;DHT22;18312;51.486;7.144;2024-02-14T10:46:44;11.30;99.90
31733;DHT22;18312;51.486;7.144;2024-02-14T10:49:14;11.30;99.90
31733;DHT22;18312;51.486;7.144;2024-02-14T10:51:43;11.20;99.90
31733;DHT22;18312;51.486;7.144;2024-02-14T10:54:14;11.00;99.90
31733;DHT22;18312;51.486;7.144;2024-02-14T10:56:47;10.80;99.90
31733;DHT22;18312;51.486;7.144;2024-02-14T10:59:18;10.70;99.90
31733;DHT22;18312;51.486;7.144;2024-02-14T11:01:46;10.80;99.90
31733;DHT22;18312;51.486;7.144;2024-02-14T11:04:15;11.00;99.90
31733;DHT22;18312;51.486;7.144;2024-02-14T11:06:46;11.00;99.90
31733;DHT22;18312;51.486;7.144;2024-02-14T11:09:15;10.90;99.90
31733;DHT22;18312;51.486;7.144;2024-02-14T11:11:42;10.90;99.90
31733;DHT22;18312;51.486;7.144;2024-02-14T11:14:09;11.00;99.90
31733;DHT22;18312;51.486;7.144;2024-02-14T11:16:38;11.10;99.90
31733;DHT22;18312;51.486;7.144;2024-02-14T11:19:06;11.00;99.90
31733;DHT22;18312;51.486;7.144;2024-02-14T11:21:36;11.10;99.90
31733;DHT22;18312;51.486;7.144;2024-02-14T11:24:06;11.00;99.90
31733;DHT22;18312;51.486;7.144;2024-02-14T11:26:45;11.10;99.90
31733;DHT22;18312;51.486;7.144;2024-02-14T11:29:14;11.00;99.90
31733;DHT22;18312;51.486;7.144;2024-02-14T11:31:43;11.00;99.90
31733;DHT22;18312;51.486;7.144;2024-02-14T11:34:12;11.10;99.90
31733;DHT22;18312;51.486;7.144;2024-02-14T11:36:39;11.20;99.90
31733;DHT22;18312;51.486;7.144;2024-02-14T11:39:07;11.10;99.90
31733;DHT22;18312;51.486;7.144;2024-02-14T11:41:35;11.20;99.90
31733;DHT22;18312;51.486;7.144;2024-02-14T11:44:03;11.10;99.90
31733;DHT22;18312;51.486;7.144;2024-02-14T11:46:31;11.20;99.90
31733;DHT22;18312;51.486;7.144;2024-02-14T11:48:59;11.20;99.90
31733;DHT22;18312;51.486;7.144;2024-02-14T11:51:28;11.20;99.90
31733;DHT22;18312;51.486;7.144;2024-02-14T11:53:56;11.30;99.90
31733;DHT22;18312;51.486;7.144;2024-02-14T11:56:23;11.40;99.90
31733;DHT22;18312;51.486;7.144;2024-02-14T11:58:51;11.40;99.90
31733;DHT22;18312;51.486;7.144;2024-02-14T12:01:18;11.50;99.90
31733;DHT22;18312;51.486;7.144;2024-02-14T12:03:45;11.60;99.90
31733;DHT22;18312;51.486;7.144;2024-02-14T12:06:13;11.80;99.90
31733;DHT22;18312;51.486;7.144;2024-02-14T12:08:41;11.70;99.90
31733;DHT22;18312;51.486;7.144;2024-02-14T12:11:08;11.80;99.90
31733;DHT22;18312;51.486;7.144;2024-02-14T12:13:35;11.80;99.90
31733;DHT22;18312;51.486;7.144;2024-02-14T12:16:03;11.90;99.90
31733;DHT22;18312;51.486;7.144;2024-02-14T12:18:32;12.00;99.90
31733;DHT22;18312;51.486;7.144;2024-02-14T12:21:06;11.90;99.90
31733;DHT22;18312;51.486;7.144;2024-02-14T12:23:35;12.00;99.90
31733;DHT22;18312;51.486;7.144;2024-02-14T12:26:03;11.90;99.90
31733;DHT22;18312;51.486;7.144;2024-02-14T12:28:30;11.90;99.90
31733;DHT22;18312;51.486;7.144;2024-02-14T12:30:58;12.00;99.90
31733;DHT22;18312;51.486;7.144;2024-02-14T12:33:25;12.00;99.90
31733;DHT22;18312;51.486;7.144;2024-02-14T12:35:53;12.00;99.90
31733;DHT22;18312;51.486;7.144;2024-02-14T12:38:21;12.00;99.90
31733;DHT22;18312;51.486;7.144;2024-02-14T12:40:50;12.00;99.90
31733;DHT22;18312;51.486;7.144;2024-02-14T12:43:19;11.90;99.90
31733;DHT22;18312;51.486;7.144;2024-02-14T12:45:46;12.00;99.90
31733;DHT22;18312;51.486;7.144;2024-02-14T12:48:14;12.00;99.90
31733;DHT22;18312;51.486;7.144;2024-02-14T12:50:48;12.00;99.90
31733;DHT22;18312;51.486;7.144;2024-02-14T12:53:15;11.90;99.90
31733;DHT22;18312;51.486;7.144;2024-02-14T12:55:42;11.90;99.90
31733;DHT22;18312;51.486;7.144;2024-02-14T12:58:10;11.90;99.90
31733;DHT22;18312;51.486;7.144;2024-02-14T13:00:37;12.00;99.90
31733;DHT22;18312;51.486;7.144;2024-02-14T13:03:04;11.90;99.90
31733;DHT22;18312;51.486;7.144;2024-02-14T13:05:31;11.90;99.90
31733;DHT22;18312;51.486;7.144;2024-02-14T13:07:59;12.00;99.90
31733;DHT22;18312;51.486;7.144;2024-02-14T13:10:26;12.00;99.90
31733;DHT22;18312;51.486;7.144;2024-02-14T13:12:53;12.00;99.90
31733;DHT22;18312;51.486;7.144;2024-02-14T13:15:21;12.00;99.90
31733;DHT22;18312;51.486;7.144;2024-02-14T13:17:48;11.90;99.90
31733;DHT22;18312;51.486;7.144;2024-02-14T13:20:21;11.80;99.90
31733;DHT22;18312;51.486;7.144;2024-02-14T13:22:53;11.80;99.90
31733;DHT22;18312;51.486;7.144;2024-02-14T13:25:25;11.80;99.90
31733;DHT22;18312;51.486;7.144;2024-02-14T13:27:52;11.80;99.90
31733;DHT22;18312;51.486;7.144;2024-02-14T13:30:21;11.80;99.90
31733;DHT22;18312;51.486;7.144;2024-02-14T13:32:49;11.80;99.90
31733;DHT22;18312;51.486;7.144;2024-02-14T13:35:16;11.90;99.90
31733;DHT22;18312;51.486;7.144;2024-02-14T13:37:42;11.90;99.90
31733;DHT22;18312;51.486;7.144;2024-02-14T13:40:10;11.90;99.90
31733;DHT22;18312;51.486;7.144;2024-02-14T13:42:37;12.00;99.90
31733;DHT22;18312;51.486;7.144;2024-02-14T13:45:04;12.00;99.90
31733;DHT22;18312;51.486;7.144;2024-02-14T13:47:36;11.90;99.90
31733;DHT22;18312;51.486;7.144;2024-02-14T13:50:05;11.90;99.90
31733;DHT22;18312;51.486;7.144;2024-02-14T13:52:32;12.00;99.90
31733;DHT22;18312;51.486;7.144;2024-02-14T13:54:59;12.00;99.90
31733;DHT22;18312;51.486;7.144;2024-02-14T13:57:27;11.90;99.90
31733;DHT22;18312;51.486;7.144;2024-02-14T13:59:54;11.90;99.90
31733;DHT22;18312;51.486;7.144;2024-02-14T14:02:21;12.00;99.90
31733;DHT22;18312;51.486;7.144;2024-02-14T14:04:50;12.00;99.90
31733;DHT22;18312;51.486;7.144;2024-02-14T14:07:18;12.00;99.90
31733;DHT22;18312;51.486;7.144;2024-02-14T14:09:45;12.00;99.90
31733;DHT22;18312;51.486;7.144;2024-02-14T14:12:12;12.00;99.90
31733;DHT22;18312;51.486;7.144;2024-02-14T14:14:39;11.90;99.90
31733;DHT22;18312;51.486;7.144;2024-02-14T14:17:06;11.90;99.90
31733;DHT22;18312;51.486;7.144;2024-02-14T14:19:32;11.90;99.90
31733;DHT22;18312;51.486;7.144;2024-02-14T14:22:00;11.90;99.90
31733;DHT22;18312;51.486;7.144;2024-02-14T14:24:27;12.00;99.90
31733;DHT22;18312;51.486;7.144;2024-02-14T14:26:56;11.90;99.90
31733;DHT22;18312;51.486;7.144;2024-02-14T14:29:23;11.90;99.90
31733;DHT22;18312;51.486;7.144;2024-02-14T14:31:50;11.90;99.90
31733;DHT22;18312;51.486;7.144;2024-02-14T14:34:16;11.80;99.90
31733;DHT22;18312;51.486;7.144;2024-02-14T14:36:44;11.80;99.90
31733;DHT22;18312;51.486;7.144;2024-02-14T14:39:13;11.80;99.90
31733;DHT22;18312;51.486;7.144;2024-02-14T14:41:39;11.80;99.90
31733;DHT22;18312;51.486;7.144;2024-02-14T14:44:07;11.80;99.90
31733;DHT22;18312;51.486;7.144;2024-02-14T14:46:34;11.80;99.90
31733;DHT22;18312;51.486;7.144;2024-02-14T14:49:01;11.80;99.90
31733;DHT22;18312;51.486;7.144;2024-02-14T14:51:29;11.70;99.90
31733;DHT22;18312;51.486;7.144;2024-02-14T14:53:55;11.60;99.90
31733;DHT22;18312;51.486;7.144;2024-02-14T14:56:24;11.60;99.90
31733;DHT22;18312;51.486;7.144;2024-02-14T14:58:52;11.50;99.90
31733;DHT22;18312;51.486;7.144;2024-02-14T15:01:21;11.40;99.90
31733;DHT22;18312;51.486;7.144;2024-02-14T15:03:48;11.50;99.90
31733;DHT22;18312;51.486;7.144;2024-02-14T15:06:18;11.40;99.90
31733;DHT22;18312;51.486;7.144;2024-02-14T15:08:45;11.40;99.90
31733;DHT22;18312;51.486;7.144;2024-02-14T15:11:13;11.40;99.90
31733;DHT22;18312;51.486;7.144;2024-02-14T15:13:43;11.40;99.90
31733;DHT22;18312;51.486;7.144;2024-02-14T15:16:12;11.40;99.90
31733;DHT22;18312;51.486;7.144;2024-02-14T15:18:40;11.30;99.90
31733;DHT22;18312;51.486;7.144;2024-02-14T15:21:08;11.40;99.90
31733;DHT22;18312;51.486;7.144;2024-02-14T15:23:35;11.40;99.90
31733;DHT22;18312;51.486;7.144;2024-02-14T15:26:03;11.40;99.90
31733;DHT22;18312;51.486;7.144;2024-02-14T15:28:32;11.40;99.90
31733;DHT22;18312;51.486;7.144;2024-02-14T15:31:07;11.40;99.90
31733;DHT22;18312;51.486;7.144;2024-02-14T15:33:52;11.40;99.90
31733;DHT22;18312;51.486;7.144;2024-02-14T15:36:21;11.30;99.90
31733;DHT22;18312;51.486;7.144;2024-02-14T15:38:48;11.40;99.90